sensor_id;sensor_type;location;lat;lon;timestamp;P1;durP1;ratioP1;P2;durP2;ratioP2
13432;SDS011;6789;47.678;9.158;2023-07-16T00:02:19;2.40;;;1.98;;
13432;SDS011;6789;47.678;9.158;2023-07-16T00:07:11;3.13;;;2.42;;
13432;SDS011;6789;47.678;9.158;2023-07-16T00:12:03;2.60;;;2.10;;
13432;SDS011;6789;47.678;9.158;2023-07-16T00:16:55;3.45;;;1.80;;
13432;SDS011;6789;47.678;9.158;2023-07-16T00:21:47;3.05;;;1.80;;
13432;SDS011;6789;47.678;9.158;2023-07-16T00:26:39;1.75;;;1.65;;
13432;SDS011;6789;47.678;9.158;2023-07-16T00:31:31;1.80;;;1.40;;
13432;SDS011;6789;47.678;9.158;2023-07-16T00:36:24;2.53;;;1.20;;
13432;SDS011;6789;47.678;9.158;2023-07-16T00:41:16;0.85;;;0.85;;
13432;SDS011;6789;47.678;9.158;2023-07-16T00:46:08;1.20;;;1.10;;
13432;SDS011;6789;47.678;9.158;2023-07-16T00:51:01;2.10;;;1.27;;
13432;SDS011;6789;47.678;9.158;2023-07-16T00:55:55;1.23;;;1.13;;
13432;SDS011;6789;47.678;9.158;2023-07-16T01:00:47;1.65;;;1.10;;
13432;SDS011;6789;47.678;9.158;2023-07-16T01:05:45;1.33;;;0.90;;
13432;SDS011;6789;47.678;9.158;2023-07-16T01:11:02;1.60;;;1.10;;
13432;SDS011;6789;47.678;9.158;2023-07-16T01:15:57;2.50;;;1.58;;
13432;SDS011;6789;47.678;9.158;2023-07-16T01:20:49;1.67;;;1.30;;
13432;SDS011;6789;47.678;9.158;2023-07-16T01:30:59;1.70;;;1.20;;
13432;SDS011;6789;47.678;9.158;2023-07-16T01:35:52;2.25;;;1.30;;
13432;SDS011;6789;47.678;9.158;2023-07-16T01:40:47;1.48;;;1.20;;
13432;SDS011;6789;47.678;9.158;2023-07-16T01:45:38;1.33;;;1.23;;
13432;SDS011;6789;47.678;9.158;2023-07-16T01:50:31;3.63;;;1.40;;
13432;SDS011;6789;47.678;9.158;2023-07-16T01:55:24;1.20;;;1.10;;
13432;SDS011;6789;47.678;9.158;2023-07-16T02:00:15;1.65;;;1.00;;
13432;SDS011;6789;47.678;9.158;2023-07-16T02:05:07;2.30;;;1.00;;
13432;SDS011;6789;47.678;9.158;2023-07-16T02:09:59;1.90;;;1.10;;
13432;SDS011;6789;47.678;9.158;2023-07-16T02:14:51;1.88;;;1.10;;
13432;SDS011;6789;47.678;9.158;2023-07-16T02:19:43;2.42;;;1.00;;
13432;SDS011;6789;47.678;9.158;2023-07-16T02:24:34;1.60;;;1.10;;
13432;SDS011;6789;47.678;9.158;2023-07-16T02:29:26;1.77;;;1.35;;
13432;SDS011;6789;47.678;9.158;2023-07-16T02:34:18;1.20;;;1.10;;
13432;SDS011;6789;47.678;9.158;2023-07-16T02:39:10;1.75;;;1.05;;
13432;SDS011;6789;47.678;9.158;2023-07-16T02:44:04;2.13;;;1.20;;
13432;SDS011;6789;47.678;9.158;2023-07-16T02:48:57;1.33;;;1.23;;
13432;SDS011;6789;47.678;9.158;2023-07-16T02:53:49;1.17;;;1.02;;
13432;SDS011;6789;47.678;9.158;2023-07-16T02:58:41;1.20;;;1.05;;
13432;SDS011;6789;47.678;9.158;2023-07-16T03:03:33;1.98;;;1.10;;
13432;SDS011;6789;47.678;9.158;2023-07-16T03:08:26;1.25;;;1.10;;
13432;SDS011;6789;47.678;9.158;2023-07-16T03:13:21;1.30;;;1.20;;
13432;SDS011;6789;47.678;9.158;2023-07-16T03:18:13;2.03;;;1.60;;
13432;SDS011;6789;47.678;9.158;2023-07-16T03:23:05;1.17;;;1.08;;
13432;SDS011;6789;47.678;9.158;2023-07-16T03:27:57;1.55;;;1.42;;
13432;SDS011;6789;47.678;9.158;2023-07-16T03:32:48;2.33;;;1.25;;
13432;SDS011;6789;47.678;9.158;2023-07-16T03:37:43;1.42;;;1.17;;
13432;SDS011;6789;47.678;9.158;2023-07-16T03:42:35;1.80;;;1.30;;
13432;SDS011;6789;47.678;9.158;2023-07-16T03:47:27;1.77;;;1.40;;
13432;SDS011;6789;47.678;9.158;2023-07-16T03:52:19;2.30;;;1.45;;
13432;SDS011;6789;47.678;9.158;2023-07-16T03:57:10;2.63;;;1.40;;
13432;SDS011;6789;47.678;9.158;2023-07-16T04:02:02;1.50;;;1.13;;
13432;SDS011;6789;47.678;9.158;2023-07-16T04:06:54;1.50;;;1.15;;
13432;SDS011;6789;47.678;9.158;2023-07-16T04:11:47;1.25;;;1.10;;
13432;SDS011;6789;47.678;9.158;2023-07-16T04:16:39;1.40;;;1.25;;
13432;SDS011;6789;47.678;9.158;2023-07-16T04:21:31;1.38;;;0.95;;
13432;SDS011;6789;47.678;9.158;2023-07-16T04:26:22;1.95;;;1.60;;
13432;SDS011;6789;47.678;9.158;2023-07-16T04:31:14;1.42;;;1.25;;
13432;SDS011;6789;47.678;9.158;2023-07-16T04:36:06;1.70;;;1.27;;
13432;SDS011;6789;47.678;9.158;2023-07-16T04:40:58;1.50;;;1.30;;
13432;SDS011;6789;47.678;9.158;2023-07-16T04:45:49;1.58;;;1.30;;
13432;SDS011;6789;47.678;9.158;2023-07-16T04:50:41;1.42;;;1.30;;
13432;SDS011;6789;47.678;9.158;2023-07-16T04:55:36;1.80;;;1.45;;
13432;SDS011;6789;47.678;9.158;2023-07-16T05:00:33;1.45;;;1.33;;
13432;SDS011;6789;47.678;9.158;2023-07-16T05:05:25;3.13;;;1.23;;
13432;SDS011;6789;47.678;9.158;2023-07-16T05:10:18;1.35;;;1.15;;
13432;SDS011;6789;47.678;9.158;2023-07-16T05:15:09;1.13;;;1.00;;
13432;SDS011;6789;47.678;9.158;2023-07-16T05:20:01;1.73;;;1.45;;
13432;SDS011;6789;47.678;9.158;2023-07-16T05:24:55;7.68;;;5.20;;
13432;SDS011;6789;47.678;9.158;2023-07-16T05:29:47;2.45;;;1.65;;
13432;SDS011;6789;47.678;9.158;2023-07-16T05:34:39;2.05;;;1.40;;
13432;SDS011;6789;47.678;9.158;2023-07-16T05:39:31;1.30;;;1.20;;
13432;SDS011;6789;47.678;9.158;2023-07-16T05:44:23;1.90;;;1.23;;
13432;SDS011;6789;47.678;9.158;2023-07-16T05:49:15;2.00;;;1.80;;
13432;SDS011;6789;47.678;9.158;2023-07-16T05:54:06;1.60;;;1.50;;
13432;SDS011;6789;47.678;9.158;2023-07-16T05:58:58;1.58;;;1.35;;
13432;SDS011;6789;47.678;9.158;2023-07-16T06:03:50;1.40;;;1.30;;
13432;SDS011;6789;47.678;9.158;2023-07-16T06:08:42;2.00;;;1.20;;
13432;SDS011;6789;47.678;9.158;2023-07-16T06:13:34;1.42;;;1.33;;
13432;SDS011;6789;47.678;9.158;2023-07-16T06:18:26;2.55;;;1.27;;
13432;SDS011;6789;47.678;9.158;2023-07-16T06:23:18;1.70;;;1.58;;
13432;SDS011;6789;47.678;9.158;2023-07-16T06:28:10;1.60;;;1.10;;
13432;SDS011;6789;47.678;9.158;2023-07-16T06:33:02;2.63;;;1.20;;
13432;SDS011;6789;47.678;9.158;2023-07-16T06:37:55;1.20;;;1.10;;
13432;SDS011;6789;47.678;9.158;2023-07-16T06:42:47;1.83;;;1.00;;
13432;SDS011;6789;47.678;9.158;2023-07-16T06:47:38;1.77;;;1.30;;
13432;SDS011;6789;47.678;9.158;2023-07-16T06:52:31;2.35;;;1.00;;
13432;SDS011;6789;47.678;9.158;2023-07-16T06:57:23;1.42;;;1.15;;
13432;SDS011;6789;47.678;9.158;2023-07-16T07:02:18;0.90;;;0.90;;
13432;SDS011;6789;47.678;9.158;2023-07-16T07:07:11;1.73;;;1.00;;
13432;SDS011;6789;47.678;9.158;2023-07-16T07:12:03;3.50;;;1.10;;
13432;SDS011;6789;47.678;9.158;2023-07-16T07:16:55;1.95;;;1.25;;
13432;SDS011;6789;47.678;9.158;2023-07-16T07:21:46;1.80;;;1.38;;
13432;SDS011;6789;47.678;9.158;2023-07-16T07:26:40;1.60;;;1.30;;
13432;SDS011;6789;47.678;9.158;2023-07-16T07:31:32;1.40;;;1.10;;
13432;SDS011;6789;47.678;9.158;2023-07-16T07:36:24;2.08;;;1.20;;
13432;SDS011;6789;47.678;9.158;2023-07-16T07:41:16;3.20;;;1.20;;
13432;SDS011;6789;47.678;9.158;2023-07-16T07:46:08;1.65;;;1.25;;
13432;SDS011;6789;47.678;9.158;2023-07-16T07:51:01;1.98;;;1.08;;
13432;SDS011;6789;47.678;9.158;2023-07-16T07:55:57;3.15;;;1.20;;
13432;SDS011;6789;47.678;9.158;2023-07-16T08:00:49;1.48;;;1.00;;
13432;SDS011;6789;47.678;9.158;2023-07-16T08:05:41;2.45;;;1.30;;
13432;SDS011;6789;47.678;9.158;2023-07-16T08:10:33;2.58;;;1.20;;
13432;SDS011;6789;47.678;9.158;2023-07-16T08:16:05;2.08;;;1.17;;
13432;SDS011;6789;47.678;9.158;2023-07-16T08:21:00;4.60;;;1.63;;
13432;SDS011;6789;47.678;9.158;2023-07-16T08:25:53;2.70;;;1.23;;
13432;SDS011;6789;47.678;9.158;2023-07-16T08:30:48;1.95;;;1.25;;
13432;SDS011;6789;47.678;9.158;2023-07-16T08:35:40;1.17;;;1.00;;
13432;SDS011;6789;47.678;9.158;2023-07-16T08:40:33;1.73;;;1.20;;
13432;SDS011;6789;47.678;9.158;2023-07-16T08:45:26;3.70;;;1.30;;
13432;SDS011;6789;47.678;9.158;2023-07-16T08:50:21;4.32;;;1.30;;
13432;SDS011;6789;47.678;9.158;2023-07-16T08:55:15;3.83;;;1.23;;
13432;SDS011;6789;47.678;9.158;2023-07-16T09:00:08;2.28;;;1.42;;
13432;SDS011;6789;47.678;9.158;2023-07-16T09:05:01;3.72;;;1.30;;
13432;SDS011;6789;47.678;9.158;2023-07-16T09:09:58;2.13;;;1.25;;
13432;SDS011;6789;47.678;9.158;2023-07-16T09:14:51;2.13;;;1.20;;
13432;SDS011;6789;47.678;9.158;2023-07-16T09:19:45;1.67;;;1.27;;
13432;SDS011;6789;47.678;9.158;2023-07-16T09:24:37;3.08;;;1.35;;
13432;SDS011;6789;47.678;9.158;2023-07-16T09:29:29;4.22;;;1.55;;
13432;SDS011;6789;47.678;9.158;2023-07-16T09:34:20;2.53;;;1.30;;
13432;SDS011;6789;47.678;9.158;2023-07-16T09:39:13;2.83;;;1.30;;
13432;SDS011;6789;47.678;9.158;2023-07-16T09:44:10;2.60;;;1.13;;
13432;SDS011;6789;47.678;9.158;2023-07-16T09:49:04;1.88;;;1.10;;
13432;SDS011;6789;47.678;9.158;2023-07-16T09:53:56;1.75;;;1.10;;
13432;SDS011;6789;47.678;9.158;2023-07-16T09:58:52;2.15;;;1.50;;
13432;SDS011;6789;47.678;9.158;2023-07-16T10:03:48;1.88;;;1.55;;
13432;SDS011;6789;47.678;9.158;2023-07-16T10:08:48;3.05;;;1.42;;
13432;SDS011;6789;47.678;9.158;2023-07-16T10:13:41;1.98;;;1.20;;
13432;SDS011;6789;47.678;9.158;2023-07-16T10:18:33;2.25;;;1.30;;
13432;SDS011;6789;47.678;9.158;2023-07-16T10:23:26;3.03;;;1.30;;
13432;SDS011;6789;47.678;9.158;2023-07-16T10:28:30;1.95;;;1.40;;
13432;SDS011;6789;47.678;9.158;2023-07-16T10:33:21;1.60;;;1.20;;
13432;SDS011;6789;47.678;9.158;2023-07-16T10:38:13;2.00;;;1.25;;
13432;SDS011;6789;47.678;9.158;2023-07-16T10:43:08;3.67;;;1.70;;
13432;SDS011;6789;47.678;9.158;2023-07-16T10:47:59;1.83;;;1.48;;
13432;SDS011;6789;47.678;9.158;2023-07-16T10:52:55;2.30;;;1.40;;
13432;SDS011;6789;47.678;9.158;2023-07-16T10:57:48;1.95;;;1.15;;
13432;SDS011;6789;47.678;9.158;2023-07-16T11:02:41;3.20;;;1.25;;
13432;SDS011;6789;47.678;9.158;2023-07-16T11:07:35;2.53;;;1.67;;
13432;SDS011;6789;47.678;9.158;2023-07-16T11:12:27;1.50;;;1.27;;
13432;SDS011;6789;47.678;9.158;2023-07-16T11:17:19;4.10;;;1.60;;
13432;SDS011;6789;47.678;9.158;2023-07-16T11:22:14;3.45;;;1.75;;
13432;SDS011;6789;47.678;9.158;2023-07-16T11:27:13;2.03;;;1.23;;
13432;SDS011;6789;47.678;9.158;2023-07-16T11:32:12;2.53;;;1.38;;
13432;SDS011;6789;47.678;9.158;2023-07-16T11:37:11;1.60;;;1.42;;
13432;SDS011;6789;47.678;9.158;2023-07-16T11:42:03;2.05;;;1.23;;
13432;SDS011;6789;47.678;9.158;2023-07-16T11:46:58;1.45;;;1.35;;
13432;SDS011;6789;47.678;9.158;2023-07-16T11:51:50;2.40;;;1.50;;
13432;SDS011;6789;47.678;9.158;2023-07-16T11:56:42;1.60;;;1.35;;
13432;SDS011;6789;47.678;9.158;2023-07-16T12:01:34;2.83;;;1.30;;
13432;SDS011;6789;47.678;9.158;2023-07-16T12:06:25;2.22;;;1.17;;
13432;SDS011;6789;47.678;9.158;2023-07-16T12:11:17;1.45;;;1.35;;
13432;SDS011;6789;47.678;9.158;2023-07-16T12:16:09;1.65;;;1.50;;
13432;SDS011;6789;47.678;9.158;2023-07-16T12:21:01;2.67;;;1.13;;
13432;SDS011;6789;47.678;9.158;2023-07-16T12:25:54;1.92;;;1.35;;
13432;SDS011;6789;47.678;9.158;2023-07-16T12:30:46;3.05;;;1.50;;
13432;SDS011;6789;47.678;9.158;2023-07-16T12:35:38;3.60;;;1.63;;
13432;SDS011;6789;47.678;9.158;2023-07-16T12:40:30;1.70;;;1.60;;
13432;SDS011;6789;47.678;9.158;2023-07-16T12:45:22;1.50;;;1.30;;
13432;SDS011;6789;47.678;9.158;2023-07-16T12:50:15;2.63;;;1.40;;
13432;SDS011;6789;47.678;9.158;2023-07-16T12:55:07;1.50;;;1.38;;
13432;SDS011;6789;47.678;9.158;2023-07-16T12:59:59;2.58;;;1.83;;
13432;SDS011;6789;47.678;9.158;2023-07-16T13:04:56;1.77;;;1.17;;
13432;SDS011;6789;47.678;9.158;2023-07-16T13:09:48;3.55;;;1.50;;
13432;SDS011;6789;47.678;9.158;2023-07-16T13:14:51;2.05;;;1.50;;
13432;SDS011;6789;47.678;9.158;2023-07-16T13:19:43;3.72;;;1.40;;
13432;SDS011;6789;47.678;9.158;2023-07-16T13:24:38;1.92;;;1.45;;
13432;SDS011;6789;47.678;9.158;2023-07-16T13:29:30;1.95;;;1.40;;
13432;SDS011;6789;47.678;9.158;2023-07-16T13:34:22;3.28;;;1.67;;
13432;SDS011;6789;47.678;9.158;2023-07-16T13:39:14;3.38;;;1.75;;
13432;SDS011;6789;47.678;9.158;2023-07-16T13:44:05;1.75;;;1.60;;
13432;SDS011;6789;47.678;9.158;2023-07-16T13:48:57;1.42;;;1.10;;
13432;SDS011;6789;47.678;9.158;2023-07-16T13:53:51;1.65;;;1.40;;
13432;SDS011;6789;47.678;9.158;2023-07-16T13:58:43;2.17;;;1.40;;
13432;SDS011;6789;47.678;9.158;2023-07-16T14:03:35;1.30;;;1.20;;
13432;SDS011;6789;47.678;9.158;2023-07-16T14:08:27;1.35;;;1.25;;
13432;SDS011;6789;47.678;9.158;2023-07-16T14:13:19;1.92;;;1.30;;
13432;SDS011;6789;47.678;9.158;2023-07-16T14:18:10;2.35;;;1.50;;
13432;SDS011;6789;47.678;9.158;2023-07-16T14:23:02;2.63;;;1.65;;
13432;SDS011;6789;47.678;9.158;2023-07-16T14:27:54;2.75;;;1.50;;
13432;SDS011;6789;47.678;9.158;2023-07-16T14:32:46;2.25;;;1.52;;
13432;SDS011;6789;47.678;9.158;2023-07-16T14:37:38;1.98;;;1.50;;
13432;SDS011;6789;47.678;9.158;2023-07-16T14:42:30;3.05;;;1.58;;
13432;SDS011;6789;47.678;9.158;2023-07-16T14:47:22;2.33;;;1.45;;
13432;SDS011;6789;47.678;9.158;2023-07-16T14:52:14;1.50;;;1.33;;
13432;SDS011;6789;47.678;9.158;2023-07-16T14:57:05;3.20;;;1.70;;
13432;SDS011;6789;47.678;9.158;2023-07-16T15:01:57;2.33;;;1.42;;
13432;SDS011;6789;47.678;9.158;2023-07-16T15:06:49;1.30;;;1.20;;
13432;SDS011;6789;47.678;9.158;2023-07-16T15:11:41;1.85;;;1.20;;
13432;SDS011;6789;47.678;9.158;2023-07-16T15:16:33;1.45;;;1.20;;
13432;SDS011;6789;47.678;9.158;2023-07-16T15:21:25;2.85;;;1.70;;
13432;SDS011;6789;47.678;9.158;2023-07-16T15:26:17;1.75;;;1.40;;
13432;SDS011;6789;47.678;9.158;2023-07-16T15:31:09;1.38;;;1.20;;
13432;SDS011;6789;47.678;9.158;2023-07-16T15:36:03;1.90;;;1.25;;
13432;SDS011;6789;47.678;9.158;2023-07-16T15:40:55;1.92;;;1.55;;
13432;SDS011;6789;47.678;9.158;2023-07-16T15:45:48;1.40;;;1.27;;
13432;SDS011;6789;47.678;9.158;2023-07-16T15:50:40;1.73;;;1.30;;
13432;SDS011;6789;47.678;9.158;2023-07-16T15:55:33;1.75;;;1.60;;
13432;SDS011;6789;47.678;9.158;2023-07-16T16:00:26;1.83;;;1.60;;
13432;SDS011;6789;47.678;9.158;2023-07-16T16:05:18;1.80;;;1.60;;
13432;SDS011;6789;47.678;9.158;2023-07-16T16:10:13;3.13;;;1.73;;
13432;SDS011;6789;47.678;9.158;2023-07-16T16:15:05;2.08;;;1.42;;
13432;SDS011;6789;47.678;9.158;2023-07-16T16:19:59;1.88;;;1.70;;
13432;SDS011;6789;47.678;9.158;2023-07-16T16:24:51;3.08;;;1.70;;
13432;SDS011;6789;47.678;9.158;2023-07-16T16:29:43;3.20;;;1.50;;
13432;SDS011;6789;47.678;9.158;2023-07-16T16:34:35;2.92;;;1.67;;
13432;SDS011;6789;47.678;9.158;2023-07-16T16:39:28;2.15;;;1.73;;
13432;SDS011;6789;47.678;9.158;2023-07-16T16:44:21;2.58;;;1.73;;
13432;SDS011;6789;47.678;9.158;2023-07-16T16:49:13;2.22;;;1.67;;
13432;SDS011;6789;47.678;9.158;2023-07-16T16:54:05;1.83;;;1.40;;
13432;SDS011;6789;47.678;9.158;2023-07-16T16:58:57;3.67;;;1.73;;
13432;SDS011;6789;47.678;9.158;2023-07-16T17:03:49;2.70;;;1.58;;
13432;SDS011;6789;47.678;9.158;2023-07-16T17:08:41;1.70;;;1.60;;
13432;SDS011;6789;47.678;9.158;2023-07-16T17:13:40;3.45;;;1.90;;
13432;SDS011;6789;47.678;9.158;2023-07-16T17:18:32;3.83;;;1.80;;
13432;SDS011;6789;47.678;9.158;2023-07-16T17:23:24;2.58;;;1.60;;
13432;SDS011;6789;47.678;9.158;2023-07-16T17:28:16;2.88;;;1.67;;
13432;SDS011;6789;47.678;9.158;2023-07-16T17:33:08;4.05;;;2.00;;
13432;SDS011;6789;47.678;9.158;2023-07-16T17:38:00;6.47;;;1.67;;
13432;SDS011;6789;47.678;9.158;2023-07-16T17:42:53;1.90;;;1.80;;
13432;SDS011;6789;47.678;9.158;2023-07-16T17:47:46;3.45;;;1.58;;
13432;SDS011;6789;47.678;9.158;2023-07-16T17:52:38;2.00;;;1.83;;
13432;SDS011;6789;47.678;9.158;2023-07-16T17:57:31;5.65;;;2.03;;
13432;SDS011;6789;47.678;9.158;2023-07-16T18:02:23;4.63;;;2.22;;
13432;SDS011;6789;47.678;9.158;2023-07-16T18:07:15;3.78;;;2.50;;
13432;SDS011;6789;47.678;9.158;2023-07-16T18:12:07;5.07;;;2.75;;
13432;SDS011;6789;47.678;9.158;2023-07-16T18:16:59;4.10;;;2.25;;
13432;SDS011;6789;47.678;9.158;2023-07-16T18:21:52;5.80;;;2.97;;
13432;SDS011;6789;47.678;9.158;2023-07-16T18:26:56;4.25;;;2.65;;
13432;SDS011;6789;47.678;9.158;2023-07-16T18:31:48;5.78;;;2.42;;
13432;SDS011;6789;47.678;9.158;2023-07-16T18:36:39;3.85;;;2.28;;
13432;SDS011;6789;47.678;9.158;2023-07-16T18:41:31;3.50;;;2.67;;
13432;SDS011;6789;47.678;9.158;2023-07-16T18:46:25;3.10;;;2.40;;
13432;SDS011;6789;47.678;9.158;2023-07-16T18:51:18;6.32;;;2.85;;
13432;SDS011;6789;47.678;9.158;2023-07-16T18:56:11;5.47;;;2.78;;
13432;SDS011;6789;47.678;9.158;2023-07-16T19:01:05;4.03;;;2.28;;
13432;SDS011;6789;47.678;9.158;2023-07-16T19:05:57;3.30;;;2.50;;
13432;SDS011;6789;47.678;9.158;2023-07-16T19:10:53;3.85;;;2.15;;
13432;SDS011;6789;47.678;9.158;2023-07-16T19:15:45;2.63;;;1.90;;
13432;SDS011;6789;47.678;9.158;2023-07-16T19:20:38;3.08;;;2.45;;
13432;SDS011;6789;47.678;9.158;2023-07-16T19:25:30;3.22;;;2.03;;
13432;SDS011;6789;47.678;9.158;2023-07-16T19:30:22;4.38;;;2.65;;
13432;SDS011;6789;47.678;9.158;2023-07-16T19:35:14;4.50;;;2.53;;
13432;SDS011;6789;47.678;9.158;2023-07-16T19:40:06;3.50;;;2.65;;
13432;SDS011;6789;47.678;9.158;2023-07-16T19:45:02;6.68;;;4.50;;
13432;SDS011;6789;47.678;9.158;2023-07-16T19:49:55;4.78;;;3.55;;
13432;SDS011;6789;47.678;9.158;2023-07-16T19:55:03;6.63;;;4.35;;
13432;SDS011;6789;47.678;9.158;2023-07-16T19:59:56;5.70;;;3.80;;
13432;SDS011;6789;47.678;9.158;2023-07-16T20:04:48;5.82;;;4.78;;
13432;SDS011;6789;47.678;9.158;2023-07-16T20:09:40;7.47;;;4.80;;
13432;SDS011;6789;47.678;9.158;2023-07-16T20:14:34;6.82;;;4.40;;
13432;SDS011;6789;47.678;9.158;2023-07-16T20:19:26;5.30;;;3.80;;
13432;SDS011;6789;47.678;9.158;2023-07-16T20:24:17;4.90;;;3.13;;
13432;SDS011;6789;47.678;9.158;2023-07-16T20:29:09;4.07;;;3.33;;
13432;SDS011;6789;47.678;9.158;2023-07-16T20:34:01;5.75;;;3.60;;
13432;SDS011;6789;47.678;9.158;2023-07-16T20:38:54;4.60;;;3.40;;
13432;SDS011;6789;47.678;9.158;2023-07-16T20:43:46;6.25;;;4.47;;
13432;SDS011;6789;47.678;9.158;2023-07-16T20:48:39;7.35;;;4.38;;
13432;SDS011;6789;47.678;9.158;2023-07-16T20:53:33;6.45;;;4.05;;
13432;SDS011;6789;47.678;9.158;2023-07-16T20:58:25;5.18;;;4.22;;
13432;SDS011;6789;47.678;9.158;2023-07-16T21:03:17;7.78;;;4.97;;
13432;SDS011;6789;47.678;9.158;2023-07-16T21:08:09;6.95;;;4.93;;
13432;SDS011;6789;47.678;9.158;2023-07-16T21:13:00;9.15;;;5.15;;
13432;SDS011;6789;47.678;9.158;2023-07-16T21:17:56;7.03;;;5.68;;
13432;SDS011;6789;47.678;9.158;2023-07-16T21:22:49;7.03;;;5.05;;
13432;SDS011;6789;47.678;9.158;2023-07-16T21:27:47;6.63;;;4.68;;
13432;SDS011;6789;47.678;9.158;2023-07-16T21:32:46;5.85;;;5.25;;
13432;SDS011;6789;47.678;9.158;2023-07-16T21:37:38;6.65;;;4.47;;
13432;SDS011;6789;47.678;9.158;2023-07-16T21:42:30;5.68;;;4.38;;
13432;SDS011;6789;47.678;9.158;2023-07-16T21:47:22;4.50;;;3.20;;
13432;SDS011;6789;47.678;9.158;2023-07-16T21:52:14;7.03;;;3.50;;
13432;SDS011;6789;47.678;9.158;2023-07-16T21:57:06;4.85;;;3.10;;
13432;SDS011;6789;47.678;9.158;2023-07-16T22:01:58;5.72;;;3.60;;
13432;SDS011;6789;47.678;9.158;2023-07-16T22:06:50;5.30;;;4.18;;
13432;SDS011;6789;47.678;9.158;2023-07-16T22:11:42;7.65;;;4.35;;
13432;SDS011;6789;47.678;9.158;2023-07-16T22:16:34;7.10;;;4.13;;
13432;SDS011;6789;47.678;9.158;2023-07-16T22:21:27;5.72;;;3.83;;
13432;SDS011;6789;47.678;9.158;2023-07-16T22:26:19;7.45;;;4.03;;
13432;SDS011;6789;47.678;9.158;2023-07-16T22:31:12;6.65;;;4.00;;
13432;SDS011;6789;47.678;9.158;2023-07-16T22:36:04;4.63;;;3.50;;
13432;SDS011;6789;47.678;9.158;2023-07-16T22:40:56;3.85;;;2.97;;
13432;SDS011;6789;47.678;9.158;2023-07-16T22:45:47;6.53;;;3.80;;
13432;SDS011;6789;47.678;9.158;2023-07-16T22:50:45;7.63;;;3.60;;
13432;SDS011;6789;47.678;9.158;2023-07-16T22:55:37;6.40;;;4.00;;
13432;SDS011;6789;47.678;9.158;2023-07-16T23:00:30;4.88;;;2.97;;
13432;SDS011;6789;47.678;9.158;2023-07-16T23:05:24;6.97;;;3.30;;
13432;SDS011;6789;47.678;9.158;2023-07-16T23:10:16;4.68;;;3.35;;
13432;SDS011;6789;47.678;9.158;2023-07-16T23:15:10;5.72;;;2.97;;
13432;SDS011;6789;47.678;9.158;2023-07-16T23:20:03;7.18;;;2.85;;
13432;SDS011;6789;47.678;9.158;2023-07-16T23:24:57;4.75;;;2.97;;
13432;SDS011;6789;47.678;9.158;2023-07-16T23:29:49;4.80;;;3.00;;
13432;SDS011;6789;47.678;9.158;2023-07-16T23:34:40;3.70;;;2.75;;
13432;SDS011;6789;47.678;9.158;2023-07-16T23:39:32;4.72;;;2.88;;
13432;SDS011;6789;47.678;9.158;2023-07-16T23:44:24;5.22;;;3.22;;
13432;SDS011;6789;47.678;9.158;2023-07-16T23:49:16;5.60;;;3.35;;
13432;SDS011;6789;47.678;9.158;2023-07-16T23:54:08;5.78;;;3.20;;
13432;SDS011;6789;47.678;9.158;2023-07-16T23:59:12;10.07;;;3.40;;
